sensor_id;sensor_type;location;lat;lon;timestamp;P1;durP1;ratioP1;P2;durP2;ratioP2
428;SDS011;201;48.758;9.290;2022-10-30T00:00:38;16.53;;;9.23;;
428;SDS011;201;48.758;9.290;2022-10-30T00:03:04;12.13;;;8.83;;
428;SDS011;201;48.758;9.290;2022-10-30T00:05:29;19.33;;;9.70;;
428;SDS011;201;48.758;9.290;2022-10-30T00:07:55;16.10;;;9.10;;
428;SDS011;201;48.758;9.290;2022-10-30T00:10:22;16.50;;;9.67;;
428;SDS011;201;48.758;9.290;2022-10-30T00:12:47;14.03;;;10.20;;
428;SDS011;201;48.758;9.290;2022-10-30T00:15:13;19.70;;;9.90;;
428;SDS011;201;48.758;9.290;2022-10-30T00:17:38;15.00;;;10.37;;
428;SDS011;201;48.758;9.290;2022-10-30T00:20:04;14.87;;;9.27;;
428;SDS011;201;48.758;9.290;2022-10-30T00:22:31;13.97;;;9.50;;
428;SDS011;201;48.758;9.290;2022-10-30T00:24:57;15.03;;;9.87;;
428;SDS011;201;48.758;9.290;2022-10-30T00:27:22;18.20;;;10.40;;
428;SDS011;201;48.758;9.290;2022-10-30T00:29:48;17.80;;;10.77;;
428;SDS011;201;48.758;9.290;2022-10-30T00:32:13;15.00;;;10.03;;
428;SDS011;201;48.758;9.290;2022-10-30T00:34:39;15.37;;;10.30;;
428;SDS011;201;48.758;9.290;2022-10-30T00:37:04;17.27;;;9.83;;
428;SDS011;201;48.758;9.290;2022-10-30T00:39:30;21.77;;;10.23;;
428;SDS011;201;48.758;9.290;2022-10-30T00:41:55;17.20;;;10.57;;
428;SDS011;201;48.758;9.290;2022-10-30T00:44:41;14.83;;;10.33;;
428;SDS011;201;48.758;9.290;2022-10-30T00:47:14;17.30;;;10.67;;
428;SDS011;201;48.758;9.290;2022-10-30T00:50:11;21.20;;;10.40;;
428;SDS011;201;48.758;9.290;2022-10-30T00:53:01;18.13;;;10.47;;
428;SDS011;201;48.758;9.290;2022-10-30T00:55:30;18.57;;;10.57;;
428;SDS011;201;48.758;9.290;2022-10-30T00:57:59;14.27;;;9.80;;
428;SDS011;201;48.758;9.290;2022-10-30T01:00:27;14.10;;;9.90;;
428;SDS011;201;48.758;9.290;2022-10-30T01:02:54;17.40;;;9.83;;
428;SDS011;201;48.758;9.290;2022-10-30T01:05:21;18.23;;;10.63;;
428;SDS011;201;48.758;9.290;2022-10-30T01:07:51;13.57;;;10.27;;
428;SDS011;201;48.758;9.290;2022-10-30T01:10:16;12.97;;;9.37;;
428;SDS011;201;48.758;9.290;2022-10-30T01:12:42;15.90;;;9.57;;
428;SDS011;201;48.758;9.290;2022-10-30T01:15:10;18.90;;;10.10;;
428;SDS011;201;48.758;9.290;2022-10-30T01:17:56;19.47;;;11.97;;
428;SDS011;201;48.758;9.290;2022-10-30T01:20:49;14.77;;;9.80;;
428;SDS011;201;48.758;9.290;2022-10-30T01:29:26;16.73;;;9.63;;
428;SDS011;201;48.758;9.290;2022-10-30T01:35:13;14.50;;;9.37;;
428;SDS011;201;48.758;9.290;2022-10-30T01:37:58;11.47;;;9.83;;
428;SDS011;201;48.758;9.290;2022-10-30T01:40:33;13.57;;;8.80;;
428;SDS011;201;48.758;9.290;2022-10-30T01:43:00;13.37;;;9.90;;
428;SDS011;201;48.758;9.290;2022-10-30T01:48:21;13.50;;;9.60;;
428;SDS011;201;48.758;9.290;2022-10-30T01:53:50;12.70;;;9.47;;
428;SDS011;201;48.758;9.290;2022-10-30T01:59:14;15.80;;;9.50;;
428;SDS011;201;48.758;9.290;2022-10-30T02:01:45;13.37;;;9.10;;
428;SDS011;201;48.758;9.290;2022-10-30T02:04:11;14.10;;;8.30;;
428;SDS011;201;48.758;9.290;2022-10-30T02:06:38;16.70;;;8.53;;
428;SDS011;201;48.758;9.290;2022-10-30T02:09:04;17.27;;;8.43;;
428;SDS011;201;48.758;9.290;2022-10-30T02:11:31;16.70;;;8.50;;
428;SDS011;201;48.758;9.290;2022-10-30T02:13:58;17.00;;;7.90;;
428;SDS011;201;48.758;9.290;2022-10-30T02:16:32;12.77;;;8.13;;
428;SDS011;201;48.758;9.290;2022-10-30T02:19:01;17.20;;;8.03;;
428;SDS011;201;48.758;9.290;2022-10-30T02:21:27;13.70;;;8.13;;
428;SDS011;201;48.758;9.290;2022-10-30T02:23:52;14.40;;;7.83;;
428;SDS011;201;48.758;9.290;2022-10-30T02:26:18;16.63;;;9.37;;
428;SDS011;201;48.758;9.290;2022-10-30T02:28:43;14.47;;;8.37;;
428;SDS011;201;48.758;9.290;2022-10-30T02:31:09;19.03;;;8.50;;
428;SDS011;201;48.758;9.290;2022-10-30T02:33:35;12.80;;;7.57;;
428;SDS011;201;48.758;9.290;2022-10-30T02:36:00;18.40;;;9.17;;
428;SDS011;201;48.758;9.290;2022-10-30T02:38:25;12.70;;;7.30;;
428;SDS011;201;48.758;9.290;2022-10-30T02:40:51;11.33;;;7.53;;
428;SDS011;201;48.758;9.290;2022-10-30T02:43:16;11.40;;;7.63;;
428;SDS011;201;48.758;9.290;2022-10-30T02:45:42;11.87;;;7.57;;
428;SDS011;201;48.758;9.290;2022-10-30T02:48:07;12.57;;;8.50;;
428;SDS011;201;48.758;9.290;2022-10-30T02:50:33;14.43;;;8.63;;
428;SDS011;201;48.758;9.290;2022-10-30T02:52:58;13.50;;;7.90;;
428;SDS011;201;48.758;9.290;2022-10-30T02:55:24;12.20;;;7.13;;
428;SDS011;201;48.758;9.290;2022-10-30T02:57:50;13.57;;;7.63;;
428;SDS011;201;48.758;9.290;2022-10-30T03:00:15;12.63;;;7.20;;
428;SDS011;201;48.758;9.290;2022-10-30T03:02:41;9.87;;;5.90;;
428;SDS011;201;48.758;9.290;2022-10-30T03:05:06;13.07;;;8.27;;
428;SDS011;201;48.758;9.290;2022-10-30T03:07:32;16.90;;;7.77;;
428;SDS011;201;48.758;9.290;2022-10-30T03:09:58;12.63;;;7.30;;
428;SDS011;201;48.758;9.290;2022-10-30T03:12:23;24.73;;;7.30;;
428;SDS011;201;48.758;9.290;2022-10-30T03:14:49;12.60;;;6.63;;
428;SDS011;201;48.758;9.290;2022-10-30T03:17:14;11.37;;;7.80;;
428;SDS011;201;48.758;9.290;2022-10-30T03:19:40;11.63;;;7.40;;
428;SDS011;201;48.758;9.290;2022-10-30T03:22:05;9.60;;;6.43;;
428;SDS011;201;48.758;9.290;2022-10-30T03:24:31;16.97;;;8.07;;
428;SDS011;201;48.758;9.290;2022-10-30T03:26:57;9.43;;;6.93;;
428;SDS011;201;48.758;9.290;2022-10-30T03:29:22;14.87;;;7.20;;
428;SDS011;201;48.758;9.290;2022-10-30T03:31:48;16.33;;;7.40;;
428;SDS011;201;48.758;9.290;2022-10-30T03:34:13;17.10;;;7.70;;
428;SDS011;201;48.758;9.290;2022-10-30T03:36:39;15.07;;;7.77;;
428;SDS011;201;48.758;9.290;2022-10-30T03:39:04;19.17;;;7.97;;
428;SDS011;201;48.758;9.290;2022-10-30T03:41:30;14.07;;;7.00;;
428;SDS011;201;48.758;9.290;2022-10-30T03:43:55;16.43;;;6.00;;
428;SDS011;201;48.758;9.290;2022-10-30T03:46:21;10.03;;;5.63;;
428;SDS011;201;48.758;9.290;2022-10-30T03:48:50;16.47;;;6.50;;
428;SDS011;201;48.758;9.290;2022-10-30T03:51:15;11.10;;;6.57;;
428;SDS011;201;48.758;9.290;2022-10-30T03:53:41;10.17;;;6.17;;
428;SDS011;201;48.758;9.290;2022-10-30T03:56:08;13.03;;;6.80;;
428;SDS011;201;48.758;9.290;2022-10-30T03:58:34;15.83;;;7.13;;
428;SDS011;201;48.758;9.290;2022-10-30T04:01:04;14.53;;;7.90;;
428;SDS011;201;48.758;9.290;2022-10-30T04:03:30;14.93;;;8.87;;
428;SDS011;201;48.758;9.290;2022-10-30T04:05:56;11.93;;;8.23;;
428;SDS011;201;48.758;9.290;2022-10-30T04:08:22;11.80;;;8.10;;
428;SDS011;201;48.758;9.290;2022-10-30T04:10:47;16.20;;;8.23;;
428;SDS011;201;48.758;9.290;2022-10-30T04:13:14;13.60;;;7.57;;
428;SDS011;201;48.758;9.290;2022-10-30T04:15:40;14.40;;;7.20;;
428;SDS011;201;48.758;9.290;2022-10-30T04:18:07;9.23;;;7.00;;
428;SDS011;201;48.758;9.290;2022-10-30T04:20:38;14.17;;;7.83;;
428;SDS011;201;48.758;9.290;2022-10-30T04:23:05;10.27;;;8.10;;
428;SDS011;201;48.758;9.290;2022-10-30T04:25:32;10.27;;;7.67;;
428;SDS011;201;48.758;9.290;2022-10-30T04:27:59;15.33;;;8.00;;
428;SDS011;201;48.758;9.290;2022-10-30T04:30:24;14.77;;;7.43;;
428;SDS011;201;48.758;9.290;2022-10-30T04:32:52;13.73;;;7.50;;
428;SDS011;201;48.758;9.290;2022-10-30T04:35:19;13.97;;;9.53;;
428;SDS011;201;48.758;9.290;2022-10-30T04:40:22;12.20;;;7.13;;
428;SDS011;201;48.758;9.290;2022-10-30T04:42:48;12.67;;;7.90;;
428;SDS011;201;48.758;9.290;2022-10-30T04:45:14;12.40;;;7.40;;
428;SDS011;201;48.758;9.290;2022-10-30T04:47:40;14.73;;;7.83;;
428;SDS011;201;48.758;9.290;2022-10-30T04:50:05;14.07;;;7.70;;
428;SDS011;201;48.758;9.290;2022-10-30T04:52:31;12.90;;;7.90;;
428;SDS011;201;48.758;9.290;2022-10-30T04:54:57;14.50;;;7.63;;
428;SDS011;201;48.758;9.290;2022-10-30T04:57:22;11.47;;;6.70;;
428;SDS011;201;48.758;9.290;2022-10-30T04:59:48;10.13;;;7.23;;
428;SDS011;201;48.758;9.290;2022-10-30T05:02:14;10.00;;;6.20;;
428;SDS011;201;48.758;9.290;2022-10-30T05:04:39;9.80;;;7.23;;
428;SDS011;201;48.758;9.290;2022-10-30T05:07:05;9.30;;;5.97;;
428;SDS011;201;48.758;9.290;2022-10-30T05:09:31;9.33;;;5.60;;
428;SDS011;201;48.758;9.290;2022-10-30T05:11:57;13.37;;;6.30;;
428;SDS011;201;48.758;9.290;2022-10-30T05:14:22;13.77;;;6.40;;
428;SDS011;201;48.758;9.290;2022-10-30T05:16:48;13.17;;;7.60;;
428;SDS011;201;48.758;9.290;2022-10-30T05:19:13;11.57;;;7.00;;
428;SDS011;201;48.758;9.290;2022-10-30T05:21:39;9.60;;;6.80;;
428;SDS011;201;48.758;9.290;2022-10-30T05:24:04;11.57;;;6.63;;
428;SDS011;201;48.758;9.290;2022-10-30T05:26:30;12.53;;;6.63;;
428;SDS011;201;48.758;9.290;2022-10-30T05:28:55;11.60;;;6.20;;
428;SDS011;201;48.758;9.290;2022-10-30T05:31:21;13.03;;;5.80;;
428;SDS011;201;48.758;9.290;2022-10-30T05:33:46;14.00;;;6.93;;
428;SDS011;201;48.758;9.290;2022-10-30T05:36:12;12.07;;;6.60;;
428;SDS011;201;48.758;9.290;2022-10-30T05:38:37;13.67;;;7.30;;
428;SDS011;201;48.758;9.290;2022-10-30T05:41:03;13.90;;;6.40;;
428;SDS011;201;48.758;9.290;2022-10-30T05:43:29;8.77;;;5.70;;
428;SDS011;201;48.758;9.290;2022-10-30T05:45:54;10.37;;;6.77;;
428;SDS011;201;48.758;9.290;2022-10-30T05:48:20;15.17;;;6.80;;
428;SDS011;201;48.758;9.290;2022-10-30T05:50:45;9.70;;;6.23;;
428;SDS011;201;48.758;9.290;2022-10-30T05:53:10;10.40;;;6.60;;
428;SDS011;201;48.758;9.290;2022-10-30T05:55:36;11.87;;;7.83;;
428;SDS011;201;48.758;9.290;2022-10-30T05:58:02;17.70;;;7.30;;
428;SDS011;201;48.758;9.290;2022-10-30T06:00:30;12.50;;;6.20;;
428;SDS011;201;48.758;9.290;2022-10-30T06:02:58;11.33;;;7.50;;
428;SDS011;201;48.758;9.290;2022-10-30T06:05:25;17.10;;;7.40;;
428;SDS011;201;48.758;9.290;2022-10-30T06:07:53;10.93;;;6.67;;
428;SDS011;201;48.758;9.290;2022-10-30T06:10:20;14.90;;;7.93;;
428;SDS011;201;48.758;9.290;2022-10-30T06:12:52;11.73;;;7.20;;
428;SDS011;201;48.758;9.290;2022-10-30T06:15:18;15.53;;;7.60;;
428;SDS011;201;48.758;9.290;2022-10-30T06:17:44;8.97;;;7.00;;
428;SDS011;201;48.758;9.290;2022-10-30T06:20:09;17.30;;;7.20;;
428;SDS011;201;48.758;9.290;2022-10-30T06:22:35;18.10;;;8.20;;
428;SDS011;201;48.758;9.290;2022-10-30T06:25:00;14.40;;;7.33;;
428;SDS011;201;48.758;9.290;2022-10-30T06:27:26;13.40;;;8.07;;
428;SDS011;201;48.758;9.290;2022-10-30T06:29:51;10.67;;;7.43;;
428;SDS011;201;48.758;9.290;2022-10-30T06:32:18;10.97;;;7.60;;
428;SDS011;201;48.758;9.290;2022-10-30T06:34:44;12.60;;;8.00;;
428;SDS011;201;48.758;9.290;2022-10-30T06:37:10;13.33;;;7.37;;
428;SDS011;201;48.758;9.290;2022-10-30T06:39:35;10.13;;;7.40;;
428;SDS011;201;48.758;9.290;2022-10-30T06:42:01;10.50;;;7.27;;
428;SDS011;201;48.758;9.290;2022-10-30T06:44:27;16.97;;;8.40;;
428;SDS011;201;48.758;9.290;2022-10-30T06:46:52;13.07;;;7.13;;
428;SDS011;201;48.758;9.290;2022-10-30T06:49:18;14.00;;;7.43;;
428;SDS011;201;48.758;9.290;2022-10-30T06:51:44;11.07;;;7.63;;
428;SDS011;201;48.758;9.290;2022-10-30T06:54:10;12.77;;;7.20;;
428;SDS011;201;48.758;9.290;2022-10-30T06:56:36;12.20;;;6.87;;
428;SDS011;201;48.758;9.290;2022-10-30T06:59:01;17.63;;;8.03;;
428;SDS011;201;48.758;9.290;2022-10-30T07:01:27;14.50;;;7.00;;
428;SDS011;201;48.758;9.290;2022-10-30T07:03:52;7.40;;;6.63;;
428;SDS011;201;48.758;9.290;2022-10-30T07:06:18;9.47;;;5.83;;
428;SDS011;201;48.758;9.290;2022-10-30T07:08:44;17.23;;;7.70;;
428;SDS011;201;48.758;9.290;2022-10-30T07:11:10;11.20;;;6.57;;
428;SDS011;201;48.758;9.290;2022-10-30T07:13:36;13.27;;;7.33;;
428;SDS011;201;48.758;9.290;2022-10-30T07:16:01;10.90;;;6.63;;
428;SDS011;201;48.758;9.290;2022-10-30T07:18:27;12.03;;;6.60;;
428;SDS011;201;48.758;9.290;2022-10-30T07:20:53;11.30;;;7.00;;
428;SDS011;201;48.758;9.290;2022-10-30T07:23:22;8.50;;;6.40;;
428;SDS011;201;48.758;9.290;2022-10-30T07:25:48;11.93;;;6.57;;
428;SDS011;201;48.758;9.290;2022-10-30T07:28:14;17.57;;;6.00;;
428;SDS011;201;48.758;9.290;2022-10-30T07:30:39;14.30;;;6.30;;
428;SDS011;201;48.758;9.290;2022-10-30T07:33:05;12.73;;;7.10;;
428;SDS011;201;48.758;9.290;2022-10-30T07:35:33;11.77;;;6.17;;
428;SDS011;201;48.758;9.290;2022-10-30T07:38:00;7.60;;;5.33;;
428;SDS011;201;48.758;9.290;2022-10-30T07:40:30;8.40;;;5.10;;
428;SDS011;201;48.758;9.290;2022-10-30T07:42:57;10.07;;;5.90;;
428;SDS011;201;48.758;9.290;2022-10-30T07:45:23;13.90;;;6.20;;
428;SDS011;201;48.758;9.290;2022-10-30T07:47:50;11.77;;;6.10;;
428;SDS011;201;48.758;9.290;2022-10-30T07:50:15;11.70;;;5.60;;
428;SDS011;201;48.758;9.290;2022-10-30T07:52:41;10.07;;;5.10;;
428;SDS011;201;48.758;9.290;2022-10-30T07:55:06;14.07;;;7.27;;
428;SDS011;201;48.758;9.290;2022-10-30T07:57:36;14.63;;;6.47;;
428;SDS011;201;48.758;9.290;2022-10-30T08:00:03;8.63;;;5.20;;
428;SDS011;201;48.758;9.290;2022-10-30T08:02:30;7.60;;;5.23;;
428;SDS011;201;48.758;9.290;2022-10-30T08:04:56;8.47;;;6.40;;
428;SDS011;201;48.758;9.290;2022-10-30T08:07:21;6.80;;;4.97;;
428;SDS011;201;48.758;9.290;2022-10-30T08:09:47;6.87;;;5.33;;
428;SDS011;201;48.758;9.290;2022-10-30T08:12:13;7.60;;;5.10;;
428;SDS011;201;48.758;9.290;2022-10-30T08:14:42;6.30;;;4.83;;
428;SDS011;201;48.758;9.290;2022-10-30T08:17:07;7.27;;;5.13;;
428;SDS011;201;48.758;9.290;2022-10-30T08:19:34;10.20;;;5.00;;
428;SDS011;201;48.758;9.290;2022-10-30T08:22:00;7.73;;;4.77;;
428;SDS011;201;48.758;9.290;2022-10-30T08:24:26;7.70;;;5.00;;
428;SDS011;201;48.758;9.290;2022-10-30T08:26:51;9.10;;;6.10;;
428;SDS011;201;48.758;9.290;2022-10-30T08:29:17;6.60;;;4.60;;
428;SDS011;201;48.758;9.290;2022-10-30T08:31:42;9.50;;;5.77;;
428;SDS011;201;48.758;9.290;2022-10-30T08:34:08;11.77;;;5.20;;
428;SDS011;201;48.758;9.290;2022-10-30T08:36:33;14.10;;;5.40;;
428;SDS011;201;48.758;9.290;2022-10-30T08:38:59;14.90;;;5.70;;
428;SDS011;201;48.758;9.290;2022-10-30T08:41:25;10.33;;;6.60;;
428;SDS011;201;48.758;9.290;2022-10-30T08:43:50;7.73;;;5.43;;
428;SDS011;201;48.758;9.290;2022-10-30T08:46:16;11.50;;;5.43;;
428;SDS011;201;48.758;9.290;2022-10-30T08:48:42;6.43;;;4.10;;
428;SDS011;201;48.758;9.290;2022-10-30T08:51:07;11.70;;;5.47;;
428;SDS011;201;48.758;9.290;2022-10-30T08:53:33;6.87;;;3.80;;
428;SDS011;201;48.758;9.290;2022-10-30T08:55:58;10.10;;;5.27;;
428;SDS011;201;48.758;9.290;2022-10-30T08:58:24;7.63;;;4.53;;
428;SDS011;201;48.758;9.290;2022-10-30T09:00:49;10.33;;;4.70;;
428;SDS011;201;48.758;9.290;2022-10-30T09:03:15;10.50;;;5.40;;
428;SDS011;201;48.758;9.290;2022-10-30T09:05:40;9.67;;;4.73;;
428;SDS011;201;48.758;9.290;2022-10-30T09:08:06;14.00;;;4.67;;
428;SDS011;201;48.758;9.290;2022-10-30T09:10:31;9.47;;;5.20;;
428;SDS011;201;48.758;9.290;2022-10-30T09:12:57;12.50;;;4.43;;
428;SDS011;201;48.758;9.290;2022-10-30T09:15:24;8.47;;;5.10;;
428;SDS011;201;48.758;9.290;2022-10-30T09:17:56;10.20;;;4.53;;
428;SDS011;201;48.758;9.290;2022-10-30T09:20:26;13.10;;;5.30;;
428;SDS011;201;48.758;9.290;2022-10-30T09:22:52;13.63;;;5.80;;
428;SDS011;201;48.758;9.290;2022-10-30T09:25:18;8.60;;;4.10;;
428;SDS011;201;48.758;9.290;2022-10-30T09:27:44;11.27;;;5.03;;
428;SDS011;201;48.758;9.290;2022-10-30T09:30:10;7.97;;;4.80;;
428;SDS011;201;48.758;9.290;2022-10-30T09:32:36;7.70;;;4.50;;
428;SDS011;201;48.758;9.290;2022-10-30T09:35:01;8.77;;;4.23;;
428;SDS011;201;48.758;9.290;2022-10-30T09:37:27;10.33;;;5.10;;
428;SDS011;201;48.758;9.290;2022-10-30T09:39:53;7.43;;;4.20;;
428;SDS011;201;48.758;9.290;2022-10-30T09:42:26;13.43;;;4.80;;
428;SDS011;201;48.758;9.290;2022-10-30T09:54:01;13.70;;;5.37;;
428;SDS011;201;48.758;9.290;2022-10-30T09:56:42;13.07;;;4.70;;
428;SDS011;201;48.758;9.290;2022-10-30T10:02:01;8.67;;;3.70;;
428;SDS011;201;48.758;9.290;2022-10-30T10:04:38;9.77;;;4.50;;
428;SDS011;201;48.758;9.290;2022-10-30T10:07:19;9.20;;;4.07;;
428;SDS011;201;48.758;9.290;2022-10-30T10:09:49;7.73;;;4.23;;
428;SDS011;201;48.758;9.290;2022-10-30T10:12:25;12.67;;;4.17;;
428;SDS011;201;48.758;9.290;2022-10-30T10:14:57;9.27;;;4.53;;
428;SDS011;201;48.758;9.290;2022-10-30T10:17:34;11.20;;;3.87;;
428;SDS011;201;48.758;9.290;2022-10-30T10:20:05;9.73;;;4.13;;
428;SDS011;201;48.758;9.290;2022-10-30T10:22:48;6.33;;;3.87;;
428;SDS011;201;48.758;9.290;2022-10-30T10:25:16;11.60;;;3.50;;
428;SDS011;201;48.758;9.290;2022-10-30T10:27:52;9.87;;;3.63;;
428;SDS011;201;48.758;9.290;2022-10-30T10:34:08;11.33;;;3.70;;
428;SDS011;201;48.758;9.290;2022-10-30T10:36:52;10.13;;;3.57;;
428;SDS011;201;48.758;9.290;2022-10-30T10:50:20;7.40;;;3.20;;
428;SDS011;201;48.758;9.290;2022-10-30T10:53:04;8.10;;;3.80;;
428;SDS011;201;48.758;9.290;2022-10-30T10:55:36;7.70;;;3.33;;
428;SDS011;201;48.758;9.290;2022-10-30T10:58:05;6.90;;;3.17;;
428;SDS011;201;48.758;9.290;2022-10-30T11:00:41;10.53;;;3.37;;
428;SDS011;201;48.758;9.290;2022-10-30T11:03:12;8.57;;;3.80;;
428;SDS011;201;48.758;9.290;2022-10-30T11:05:43;10.27;;;3.87;;
428;SDS011;201;48.758;9.290;2022-10-30T11:08:15;8.37;;;3.40;;
428;SDS011;201;48.758;9.290;2022-10-30T11:10:58;5.77;;;3.10;;
428;SDS011;201;48.758;9.290;2022-10-30T11:13:33;10.53;;;3.93;;
428;SDS011;201;48.758;9.290;2022-10-30T11:18:54;8.07;;;3.50;;
428;SDS011;201;48.758;9.290;2022-10-30T11:21:26;5.90;;;2.90;;
428;SDS011;201;48.758;9.290;2022-10-30T11:23:54;5.43;;;2.83;;
428;SDS011;201;48.758;9.290;2022-10-30T11:28:49;6.63;;;3.33;;
428;SDS011;201;48.758;9.290;2022-10-30T11:33:43;4.43;;;3.07;;
428;SDS011;201;48.758;9.290;2022-10-30T11:36:09;5.90;;;2.97;;
428;SDS011;201;48.758;9.290;2022-10-30T11:38:34;10.17;;;3.30;;
428;SDS011;201;48.758;9.290;2022-10-30T11:41:00;8.13;;;3.57;;
428;SDS011;201;48.758;9.290;2022-10-30T11:43:26;4.90;;;3.00;;
428;SDS011;201;48.758;9.290;2022-10-30T11:45:52;7.17;;;3.60;;
428;SDS011;201;48.758;9.290;2022-10-30T11:48:28;7.17;;;3.93;;
428;SDS011;201;48.758;9.290;2022-10-30T11:51:00;4.73;;;3.80;;
428;SDS011;201;48.758;9.290;2022-10-30T11:53:28;3.93;;;3.20;;
428;SDS011;201;48.758;9.290;2022-10-30T11:55:58;4.50;;;3.43;;
428;SDS011;201;48.758;9.290;2022-10-30T11:58:28;7.20;;;3.23;;
428;SDS011;201;48.758;9.290;2022-10-30T12:00:58;7.07;;;4.07;;
428;SDS011;201;48.758;9.290;2022-10-30T12:03:38;7.73;;;3.37;;
428;SDS011;201;48.758;9.290;2022-10-30T12:06:48;8.13;;;4.13;;
428;SDS011;201;48.758;9.290;2022-10-30T12:11:24;9.77;;;3.83;;
428;SDS011;201;48.758;9.290;2022-10-30T12:13:56;9.03;;;4.17;;
428;SDS011;201;48.758;9.290;2022-10-30T12:16:22;7.83;;;4.40;;
428;SDS011;201;48.758;9.290;2022-10-30T12:18:52;6.57;;;3.63;;
428;SDS011;201;48.758;9.290;2022-10-30T12:21:22;6.30;;;3.50;;
428;SDS011;201;48.758;9.290;2022-10-30T12:23:50;9.93;;;3.57;;
428;SDS011;201;48.758;9.290;2022-10-30T12:26:19;6.80;;;3.57;;
428;SDS011;201;48.758;9.290;2022-10-30T12:28:52;9.63;;;3.70;;
428;SDS011;201;48.758;9.290;2022-10-30T12:31:25;14.07;;;4.40;;
428;SDS011;201;48.758;9.290;2022-10-30T12:36:52;6.53;;;3.83;;
428;SDS011;201;48.758;9.290;2022-10-30T12:39:56;5.30;;;3.23;;
428;SDS011;201;48.758;9.290;2022-10-30T12:42:36;9.43;;;3.80;;
428;SDS011;201;48.758;9.290;2022-10-30T12:45:27;6.80;;;3.03;;
428;SDS011;201;48.758;9.290;2022-10-30T12:48:11;5.30;;;3.27;;
428;SDS011;201;48.758;9.290;2022-10-30T12:53:34;5.30;;;3.10;;
428;SDS011;201;48.758;9.290;2022-10-30T12:56:29;8.77;;;4.30;;
428;SDS011;201;48.758;9.290;2022-10-30T12:59:47;5.63;;;3.50;;
428;SDS011;201;48.758;9.290;2022-10-30T13:04:40;6.73;;;3.50;;
428;SDS011;201;48.758;9.290;2022-10-30T13:07:21;4.40;;;3.13;;
428;SDS011;201;48.758;9.290;2022-10-30T13:12:39;6.93;;;4.00;;
428;SDS011;201;48.758;9.290;2022-10-30T13:17:38;5.63;;;3.53;;
428;SDS011;201;48.758;9.290;2022-10-30T13:20:09;6.93;;;3.77;;
428;SDS011;201;48.758;9.290;2022-10-30T13:22:51;7.70;;;3.77;;
428;SDS011;201;48.758;9.290;2022-10-30T13:25:27;9.30;;;3.83;;
428;SDS011;201;48.758;9.290;2022-10-30T13:30:45;6.40;;;3.97;;
428;SDS011;201;48.758;9.290;2022-10-30T13:33:26;7.30;;;4.43;;
428;SDS011;201;48.758;9.290;2022-10-30T13:41:19;8.40;;;3.70;;
428;SDS011;201;48.758;9.290;2022-10-30T13:50:02;7.70;;;3.70;;
428;SDS011;201;48.758;9.290;2022-10-30T13:52:40;11.47;;;3.43;;
428;SDS011;201;48.758;9.290;2022-10-30T13:55:22;7.30;;;3.80;;
428;SDS011;201;48.758;9.290;2022-10-30T13:57:53;8.10;;;3.63;;
428;SDS011;201;48.758;9.290;2022-10-30T14:06:06;7.93;;;3.87;;
428;SDS011;201;48.758;9.290;2022-10-30T14:11:42;12.17;;;4.90;;
428;SDS011;201;48.758;9.290;2022-10-30T14:14:23;8.40;;;5.50;;
428;SDS011;201;48.758;9.290;2022-10-30T14:17:08;7.67;;;4.53;;
428;SDS011;201;48.758;9.290;2022-10-30T14:22:30;15.83;;;5.87;;
428;SDS011;201;48.758;9.290;2022-10-30T14:24:56;7.40;;;5.23;;
428;SDS011;201;48.758;9.290;2022-10-30T14:27:27;9.97;;;5.17;;
428;SDS011;201;48.758;9.290;2022-10-30T14:29:57;7.17;;;5.13;;
428;SDS011;201;48.758;9.290;2022-10-30T14:37:15;7.97;;;4.30;;
428;SDS011;201;48.758;9.290;2022-10-30T14:39:46;7.80;;;4.53;;
428;SDS011;201;48.758;9.290;2022-10-30T14:42:13;9.43;;;4.70;;
428;SDS011;201;48.758;9.290;2022-10-30T14:58:36;6.13;;;4.40;;
428;SDS011;201;48.758;9.290;2022-10-30T15:11:36;6.10;;;3.20;;
428;SDS011;201;48.758;9.290;2022-10-30T15:14:28;7.33;;;4.27;;
428;SDS011;201;48.758;9.290;2022-10-30T15:16:59;11.93;;;4.03;;
428;SDS011;201;48.758;9.290;2022-10-30T15:19:25;7.63;;;3.67;;
428;SDS011;201;48.758;9.290;2022-10-30T15:21:53;5.03;;;3.30;;
428;SDS011;201;48.758;9.290;2022-10-30T15:24:21;6.70;;;3.00;;
428;SDS011;201;48.758;9.290;2022-10-30T15:26:50;5.73;;;3.40;;
428;SDS011;201;48.758;9.290;2022-10-30T15:29:23;8.83;;;4.03;;
428;SDS011;201;48.758;9.290;2022-10-30T15:31:57;7.27;;;4.03;;
428;SDS011;201;48.758;9.290;2022-10-30T15:34:25;9.33;;;4.10;;
428;SDS011;201;48.758;9.290;2022-10-30T15:36:52;13.53;;;5.07;;
428;SDS011;201;48.758;9.290;2022-10-30T15:39:18;7.33;;;4.67;;
428;SDS011;201;48.758;9.290;2022-10-30T15:41:51;9.77;;;4.10;;
428;SDS011;201;48.758;9.290;2022-10-30T15:44:20;7.40;;;4.13;;
428;SDS011;201;48.758;9.290;2022-10-30T15:46:52;7.37;;;3.83;;
428;SDS011;201;48.758;9.290;2022-10-30T15:49:27;10.23;;;4.30;;
428;SDS011;201;48.758;9.290;2022-10-30T15:52:02;7.20;;;4.40;;
428;SDS011;201;48.758;9.290;2022-10-30T15:54:37;9.43;;;4.77;;
428;SDS011;201;48.758;9.290;2022-10-30T15:57:05;7.17;;;4.20;;
428;SDS011;201;48.758;9.290;2022-10-30T15:59:41;6.57;;;4.40;;
428;SDS011;201;48.758;9.290;2022-10-30T16:02:18;12.73;;;4.27;;
428;SDS011;201;48.758;9.290;2022-10-30T16:04:46;7.63;;;4.37;;
428;SDS011;201;48.758;9.290;2022-10-30T16:07:17;5.70;;;4.20;;
428;SDS011;201;48.758;9.290;2022-10-30T16:09:51;7.07;;;3.73;;
428;SDS011;201;48.758;9.290;2022-10-30T16:12:23;13.47;;;5.63;;
428;SDS011;201;48.758;9.290;2022-10-30T16:14:50;7.57;;;4.37;;
428;SDS011;201;48.758;9.290;2022-10-30T16:17:17;8.27;;;4.77;;
428;SDS011;201;48.758;9.290;2022-10-30T16:19:44;10.83;;;5.43;;
428;SDS011;201;48.758;9.290;2022-10-30T16:22:13;7.93;;;4.53;;
428;SDS011;201;48.758;9.290;2022-10-30T16:24:41;8.70;;;5.13;;
428;SDS011;201;48.758;9.290;2022-10-30T16:27:14;6.43;;;5.10;;
428;SDS011;201;48.758;9.290;2022-10-30T16:33:04;7.97;;;5.00;;
428;SDS011;201;48.758;9.290;2022-10-30T16:35:30;4.63;;;4.40;;
428;SDS011;201;48.758;9.290;2022-10-30T16:37:56;16.57;;;5.20;;
428;SDS011;201;48.758;9.290;2022-10-30T16:40:24;10.03;;;5.53;;
428;SDS011;201;48.758;9.290;2022-10-30T16:42:56;12.90;;;6.97;;
428;SDS011;201;48.758;9.290;2022-10-30T16:47:52;7.57;;;5.47;;
428;SDS011;201;48.758;9.290;2022-10-30T16:50:25;10.80;;;5.63;;
428;SDS011;201;48.758;9.290;2022-10-30T16:53:02;8.93;;;5.37;;
428;SDS011;201;48.758;9.290;2022-10-30T16:55:30;8.97;;;5.37;;
428;SDS011;201;48.758;9.290;2022-10-30T16:57:56;10.10;;;4.50;;
428;SDS011;201;48.758;9.290;2022-10-30T17:00:23;14.30;;;5.17;;
428;SDS011;201;48.758;9.290;2022-10-30T17:02:51;10.03;;;4.93;;
428;SDS011;201;48.758;9.290;2022-10-30T17:07:56;8.90;;;5.67;;
428;SDS011;201;48.758;9.290;2022-10-30T17:10:36;9.77;;;5.43;;
428;SDS011;201;48.758;9.290;2022-10-30T17:18:40;9.40;;;5.20;;
428;SDS011;201;48.758;9.290;2022-10-30T17:21:10;8.30;;;5.07;;
428;SDS011;201;48.758;9.290;2022-10-30T17:23:47;8.50;;;5.40;;
428;SDS011;201;48.758;9.290;2022-10-30T17:26:15;9.37;;;5.40;;
428;SDS011;201;48.758;9.290;2022-10-30T17:28:42;10.57;;;5.10;;
428;SDS011;201;48.758;9.290;2022-10-30T17:33:45;16.40;;;5.90;;
428;SDS011;201;48.758;9.290;2022-10-30T17:36:12;13.43;;;5.47;;
428;SDS011;201;48.758;9.290;2022-10-30T17:38:38;6.63;;;5.17;;
428;SDS011;201;48.758;9.290;2022-10-30T17:41:04;9.00;;;5.30;;
428;SDS011;201;48.758;9.290;2022-10-30T17:43:46;7.90;;;4.73;;
428;SDS011;201;48.758;9.290;2022-10-30T17:46:13;6.13;;;4.57;;
428;SDS011;201;48.758;9.290;2022-10-30T17:48:38;9.80;;;4.70;;
428;SDS011;201;48.758;9.290;2022-10-30T17:51:05;9.57;;;3.60;;
428;SDS011;201;48.758;9.290;2022-10-30T17:53:32;8.80;;;5.53;;
428;SDS011;201;48.758;9.290;2022-10-30T17:56:02;9.10;;;6.33;;
428;SDS011;201;48.758;9.290;2022-10-30T17:58:40;10.50;;;6.50;;
428;SDS011;201;48.758;9.290;2022-10-30T18:01:06;6.50;;;5.87;;
428;SDS011;201;48.758;9.290;2022-10-30T18:03:33;9.53;;;6.60;;
428;SDS011;201;48.758;9.290;2022-10-30T18:05:59;9.30;;;6.47;;
428;SDS011;201;48.758;9.290;2022-10-30T18:08:26;12.67;;;5.70;;